Nova Laranjeiras, Brazil
Current Conditions -  °F | °C
As of 1:00 PM on Thursday 30 Oct 2014 (Local Time) from SBCA Reporting Station
Scattered Clouds Scattered Clouds  
Wind Chill: 86°   Ceiling: Unl
Heat Index: 87°   Visibility: 6mi
Dew Point: 64°   Wind: 26mph
Humidity: 48%   Direction: 340°NNW
Pressure: 29.83"   Gusts: 40mph
Location:  25.31°S, 52.54°W
Report Text: SBCA 301500Z 34023G35KT 9999 SCT040 FEW050TCU 30/18 Q1010
Loading
Personal Weather Stations






























Interactive Weather Map
Tropical Storm Tracking
New forecast layout! Learn more

10-Day Weather Forecast

Advertisements
Track Severe Weather on mobile